Time;durP1;ratioP1;P1;durP2;ratioP2;P2;SDS_P1;SDS_P2;PMS_P1;PMS_P2;Temp;Humidity;BMP_temperature;BMP_pressure;BME280_temperature;BME280_humidity;BME280_pressure;Samples;Min_cycle;Max_cycle;Signal;HPM_P1;HPM_P2
2022/09/14 00:02:27;;;;;;;8.73;4.72;;;;;;;16.62;100.00;100771.13;5287398;28;20030;-73
2022/09/14 00:04:57;;;;;;;11.10;4.72;;;;;;;16.58;100.00;100762.59;5286381;28;20029;-74
2022/09/14 00:07:28;;;;;;;11.40;4.22;;;;;;;16.55;100.00;100766.53;5272945;28;20131;-73
2022/09/14 00:09:58;;;;;;;14.82;4.65;;;;;;;16.54;100.00;100766.75;5286573;28;20020;-73
2022/09/14 00:12:29;;;;;;;11.10;4.75;;;;;;;16.55;100.00;100771.94;5286996;28;20032;-73
2022/09/14 00:14:59;;;;;;;11.25;4.72;;;;;;;16.53;100.00;100765.91;5279820;28;20110;-74
2022/09/14 00:17:30;;;;;;;10.52;4.47;;;;;;;16.43;100.00;100756.53;5282032;28;20056;-74
2022/09/14 00:20:01;;;;;;;14.18;5.03;;;;;;;16.40;100.00;100754.22;5277459;28;20028;-73
2022/09/14 00:22:31;;;;;;;9.48;4.80;;;;;;;16.36;100.00;100737.56;5286894;28;20042;-75
2022/09/14 00:25:02;;;;;;;8.43;4.93;;;;;;;16.35;100.00;100732.38;5286573;28;20020;-75
2022/09/14 00:27:32;;;;;;;12.25;5.57;;;;;;;16.31;100.00;100721.97;5279466;28;20012;-74
2022/09/14 00:30:04;;;;;;;6.35;4.20;;;;;;;16.37;100.00;100720.31;5265251;28;20129;-74
2022/09/14 00:32:35;;;;;;;12.80;4.25;;;;;;;16.41;100.00;100721.53;5274025;28;20031;-75
2022/09/14 00:35:06;;;;;;;10.52;4.30;;;;;;;16.38;100.00;100721.13;5283602;28;20492;-75
2022/09/14 00:37:36;;;;;;;7.45;3.72;;;;;;;16.29;100.00;100718.63;5274974;28;20458;-75
2022/09/14 00:40:10;;;;;;;10.88;4.20;;;;;;;16.25;100.00;100714.66;5286101;28;20031;-74
2022/09/14 00:42:40;;;;;;;10.80;4.35;;;;;;;16.24;100.00;100714.88;5287060;28;20440;-74
2022/09/14 00:45:15;;;;;;;12.35;4.22;;;;;;;16.23;100.00;100715.91;5266735;28;20051;-73
2022/09/14 00:47:49;;;;;;;10.68;4.10;;;;;;;16.20;100.00;100711.72;5278665;28;20094;-73
2022/09/14 00:50:20;;;;;;;7.78;4.07;;;;;;;16.20;100.00;100711.72;5273132;28;20027;-74
2022/09/14 00:52:50;;;;;;;8.88;3.97;;;;;;;16.20;100.00;100706.31;5271539;28;20020;-74
2022/09/14 00:55:22;;;;;;;16.17;4.20;;;;;;;16.18;100.00;100700.28;5272882;28;20495;-74
2022/09/14 00:57:53;;;;;;;9.15;4.20;;;;;;;16.15;100.00;100694.44;5272454;28;20485;-74
2022/09/14 01:00:27;;;;;;;16.27;4.47;;;;;;;16.15;100.00;100689.88;5276265;28;20020;-74
2022/09/14 01:02:58;;;;;;;8.97;4.13;;;;;;;16.12;100.00;100698.41;5283547;28;20396;-74
2022/09/14 01:05:44;;;;;;;10.70;4.38;;;;;;;16.13;100.00;100693.84;5274002;28;20020;-74
2022/09/14 01:08:26;;;;;;;12.73;4.53;;;;;;;16.14;100.00;100692.78;5269584;28;20130;-73
2022/09/14 01:11:15;;;;;;;16.38;4.97;;;;;;;16.14;100.00;100701.72;5283322;28;20339;-74
2022/09/14 01:14:07;;;;;;;12.88;5.20;;;;;;;16.17;100.00;100703.22;5282287;28;20026;-74
2022/09/14 01:16:46;;;;;;;14.40;5.55;;;;;;;16.15;100.00;100695.28;5268151;28;20109;-74
2022/09/14 01:19:28;;;;;;;13.32;5.03;;;;;;;16.14;100.00;100696.31;5276810;28;20090;-74
2022/09/14 01:22:10;;;;;;;14.05;5.22;;;;;;;16.14;100.00;100704.44;5290385;28;20027;-74
2022/09/14 01:25:01;;;;;;;26.60;5.60;;;;;;;16.14;100.00;100707.16;5289916;28;20365;-74
2022/09/14 01:27:44;;;;;;;16.73;5.57;;;;;;;16.12;100.00;100709.25;5269720;28;20122;-74
2022/09/14 01:30:21;;;;;;;11.63;5.10;;;;;;;16.08;100.00;100707.97;5285596;28;20031;-74
2022/09/14 01:33:04;;;;;;;13.60;5.38;;;;;;;16.06;100.00;100715.44;5289969;28;20043;-74
2022/09/14 01:35:40;;;;;;;17.70;5.90;;;;;;;16.03;100.00;100711.28;5282638;28;20032;-75
2022/09/14 01:38:30;;;;;;;9.05;5.30;;;;;;;16.03;100.00;100713.16;5283878;28;20476;-74
2022/09/14 01:41:05;;;;;;;19.98;5.63;;;;;;;16.00;100.00;100716.28;5278878;28;20437;-74
2022/09/14 01:43:39;;;;;;;;;;;;;;;16.00;100.00;100713.56;5289283;28;20362;-74
2022/09/14 01:46:15;;;;;;;12.40;6.32;;;;;;;15.97;100.00;100712.13;5270895;28;19912;-74
2022/09/14 01:48:52;;;;;;;12.32;6.68;;;;;;;15.96;100.00;100704.19;5280891;28;20027;-72
2022/09/14 01:51:30;;;;;;;11.07;6.07;;;;;;;15.96;100.00;100696.91;5285944;28;20098;-72
2022/09/14 01:54:09;;;;;;;16.58;6.63;;;;;;;15.95;100.00;100689.00;5278216;28;20024;-73
2022/09/14 01:56:48;;;;;;;13.63;6.75;;;;;;;15.94;100.00;100687.34;5282873;28;20169;-73
2022/09/14 01:59:24;;;;;;;20.35;7.10;;;;;;;15.95;100.00;100684.41;5271357;28;20486;-73
2022/09/14 02:02:00;;;;;;;16.15;6.35;;;;;;;15.94;100.00;100690.03;5289642;28;20075;-72
2022/09/14 02:04:37;;;;;;;16.20;6.72;;;;;;;15.91;100.00;100685.88;5289055;28;20023;-72
2022/09/14 02:07:08;;;;;;;16.67;6.07;;;;;;;15.90;100.00;100684.19;5289818;28;20027;-72
2022/09/14 02:09:39;;;;;;;17.05;6.30;;;;;;;15.91;100.00;100683.16;5289324;28;20028;-73
2022/09/14 02:12:10;;;;;;;16.20;5.88;;;;;;;15.98;100.00;100683.19;5275732;28;20024;-72
2022/09/14 02:14:42;;;;;;;11.63;5.60;;;;;;;16.01;100.00;100680.06;5288157;28;20031;-72
2022/09/14 02:17:13;;;;;;;15.25;6.53;;;;;;;16.04;100.00;100675.06;5286775;28;20142;-73
2022/09/14 02:19:51;;;;;;;13.95;5.50;;;;;;;16.04;100.00;100676.94;5277367;28;20106;-74
2022/09/14 02:22:24;;;;;;;14.07;5.68;;;;;;;16.00;100.00;100673.81;5284854;28;20049;-73
2022/09/14 02:24:55;;;;;;;18.17;5.30;;;;;;;15.97;100.00;100673.41;5279203;28;20066;-74
2022/09/14 02:27:25;;;;;;;17.20;5.85;;;;;;;15.97;100.00;100668.00;5289150;28;20023;-73
2022/09/14 02:29:56;;;;;;;16.33;5.40;;;;;;;15.99;100.00;100666.75;5270956;28;20024;-73
2022/09/14 02:32:47;;;;;;;16.50;6.00;;;;;;;15.98;100.00;100670.50;5289258;28;20028;-73
2022/09/14 02:35:39;;;;;;;15.65;5.40;;;;;;;15.93;100.00;100664.03;5283493;28;20042;-72
2022/09/14 02:38:31;;;;;;;14.77;4.88;;;;;;;15.92;100.00;100675.91;5282638;28;20473;-73
2022/09/14 02:41:11;;;;;;;10.85;5.00;;;;;;;15.87;100.00;100673.81;5289194;28;20019;-73
2022/09/14 02:43:52;;;;;;;13.98;5.85;;;;;;;15.84;100.00;100663.38;5274809;28;20067;-73
2022/09/14 02:46:32;;;;;;;11.60;5.00;;;;;;;15.83;100.00;100666.31;5286189;28;20015;-73
2022/09/14 02:49:15;;;;;;;11.68;5.30;;;;;;;15.79;100.00;100661.28;5276192;28;20129;-73
2022/09/14 02:51:58;;;;;;;14.23;6.22;;;;;;;15.79;100.00;100660.47;5287483;28;20489;-73
2022/09/14 02:54:35;;;;;;;10.80;5.03;;;;;;;15.78;100.00;100651.53;5286349;28;20027;-73
2022/09/14 02:57:06;;;;;;;12.55;5.32;;;;;;;15.76;100.00;100653.63;5259281;28;20027;-73
2022/09/14 02:59:37;;;;;;;13.88;5.97;;;;;;;15.73;100.00;100645.91;5288435;28;20477;-74
2022/09/14 03:02:07;;;;;;;10.43;5.60;;;;;;;15.72;100.00;100646.94;5288622;28;20031;-74
2022/09/14 03:04:38;;;;;;;9.98;5.40;;;;;;;15.71;100.00;100642.56;5287580;28;20027;-73
2022/09/14 03:07:08;;;;;;;16.27;5.13;;;;;;;15.71;100.00;100642.56;5276454;28;20165;-74
2022/09/14 03:09:39;;;;;;;13.02;5.15;;;;;;;15.71;100.00;100637.16;5280642;28;20111;-73
2022/09/14 03:12:09;;;;;;;16.33;5.70;;;;;;;15.70;100.00;100631.94;5280652;28;20035;-73
2022/09/14 03:14:40;;;;;;;14.60;5.22;;;;;;;15.69;100.00;100631.09;5286831;28;20027;-73
2022/09/14 03:17:10;;;;;;;10.70;4.68;;;;;;;15.68;100.00;100621.34;5287959;28;21094;-73
2022/09/14 03:19:40;;;;;;;20.40;5.03;;;;;;;15.65;100.00;100627.16;5288053;28;20019;-73
2022/09/14 03:22:11;;;;;;;17.17;5.82;;;;;;;15.62;100.00;100615.91;5274520;28;20027;-74
2022/09/14 03:24:41;;;;;;;17.60;5.32;;;;;;;15.59;100.00;100619.81;5287360;28;20192;-73
2022/09/14 03:27:12;;;;;;;10.65;5.10;;;;;;;15.58;100.00;100625.44;5287931;28;20027;-73
2022/09/14 03:29:42;;;;;;;14.10;5.28;;;;;;;15.57;100.00;100623.78;5287360;28;20518;-74
2022/09/14 03:32:12;;;;;;;20.27;7.30;;;;;;;15.55;100.00;100619.41;5288409;28;20507;-74
2022/09/14 03:34:43;;;;;;;16.88;6.20;;;;;;;15.56;100.00;100620.22;5281326;28;20102;-74
2022/09/14 03:37:13;;;;;;;17.27;6.18;;;;;;;15.54;100.00;100620.44;5273899;28;20035;-73
2022/09/14 03:39:44;;;;;;;11.40;5.55;;;;;;;15.54;100.00;100614.19;5287221;28;20015;-73
2022/09/14 03:42:14;;;;;;;15.70;5.90;;;;;;;15.53;100.00;100613.38;5287753;28;20023;-74
2022/09/14 03:44:45;;;;;;;15.10;6.30;;;;;;;15.57;100.00;100613.81;5271388;28;20028;-74
2022/09/14 03:47:15;;;;;;;13.75;6.72;;;;;;;15.59;100.00;100603.59;5283055;28;20007;-74
2022/09/14 03:49:46;;;;;;;18.13;7.38;;;;;;;15.62;100.00;100615.91;5287165;28;20081;-74
2022/09/14 03:52:16;;;;;;;16.13;6.78;;;;;;;15.63;100.00;100606.75;5287482;28;20015;-73
2022/09/14 03:54:47;;;;;;;21.70;6.93;;;;;;;15.62;100.00;100602.38;5286691;28;20019;-73
2022/09/14 03:57:17;;;;;;;17.63;7.60;;;;;;;15.58;100.00;100599.25;5287199;28;20023;-74
2022/09/14 03:59:48;;;;;;;22.08;7.10;;;;;;;15.57;100.00;100604.84;5287146;28;20034;-74
2022/09/14 04:02:19;;;;;;;21.13;8.13;;;;;;;15.54;100.00;100606.91;5287287;28;20058;-73
2022/09/14 04:04:49;;;;;;;16.20;8.50;;;;;;;15.49;100.00;100606.69;5265169;28;20026;-74
2022/09/14 04:07:20;;;;;;;19.50;9.13;;;;;;;15.49;100.00;100606.69;5279733;28;20465;-74
2022/09/14 04:09:50;;;;;;;22.45;8.95;;;;;;;15.47;100.00;100607.97;5274439;28;20308;-75
2022/09/14 04:12:21;;;;;;;21.02;9.23;;;;;;;15.46;100.00;100608.97;5287103;28;20122;-75
2022/09/14 04:14:51;;;;;;;20.23;9.80;;;;;;;15.45;100.00;100610.84;5285820;28;20045;-75
2022/09/14 04:17:23;;;;;;;20.08;9.23;;;;;;;15.43;100.00;100617.50;5286655;28;20032;-75
2022/09/14 04:19:54;;;;;;;24.13;9.57;;;;;;;15.42;100.00;100611.25;5286830;28;20380;-75
2022/09/14 04:22:24;;;;;;;28.98;10.35;;;;;;;15.40;100.00;100607.09;5273126;28;20027;-76
2022/09/14 04:24:55;;;;;;;27.55;10.02;;;;;;;15.38;100.00;100615.41;5286367;28;20081;-75
2022/09/14 04:27:25;;;;;;;23.17;10.38;;;;;;;15.35;100.00;100621.22;5280951;28;20016;-77
2022/09/14 04:29:56;;;;;;;20.80;10.55;;;;;;;15.34;100.00;100614.13;5278706;28;20032;-77
2022/09/14 04:32:26;;;;;;;21.95;11.10;;;;;;;15.27;100.00;100608.72;5254753;28;20023;-76
2022/09/14 04:34:57;;;;;;;21.75;10.88;;;;;;;15.23;100.00;100604.75;5280733;28;20032;-76
2022/09/14 04:37:30;;;;;;;27.80;10.95;;;;;;;15.19;100.00;100611.59;5278581;28;20489;-76
2022/09/14 04:40:01;;;;;;;24.58;11.88;;;;;;;15.16;100.00;100611.16;5282048;28;20041;-76
2022/09/14 04:42:31;;;;;;;20.33;11.95;;;;;;;15.13;100.00;100607.00;5275771;28;20023;-75
2022/09/14 04:45:03;;;;;;;25.80;12.15;;;;;;;15.12;100.00;100599.94;5282970;28;20023;-75
2022/09/14 04:47:34;;;;;;;22.25;11.80;;;;;;;15.12;100.00;100601.81;5286454;28;20011;-74
2022/09/14 04:50:04;;;;;;;22.77;12.80;;;;;;;15.09;100.00;100588.69;5266713;28;20032;-74
2022/09/14 04:52:35;;;;;;;30.60;13.20;;;;;;;15.09;100.00;100600.34;5278993;28;20024;-74
2022/09/14 04:55:07;;;;;;;27.92;13.80;;;;;;;15.11;100.00;100595.56;5286049;28;20063;-75
2022/09/14 04:57:37;;;;;;;20.95;12.50;;;;;;;15.08;100.00;100597.84;5285218;28;20027;-74
2022/09/14 05:00:08;;;;;;;27.75;12.63;;;;;;;15.02;100.00;100594.06;5273953;28;20036;-75
2022/09/14 05:02:40;;;;;;;25.63;13.77;;;;;;;15.00;100.00;100598.84;5272868;28;20381;-75
2022/09/14 05:05:10;;;;;;;20.15;12.77;;;;;;;14.98;100.00;100598.22;5285293;28;20142;-76
2022/09/14 05:07:40;;;;;;;20.80;12.27;;;;;;;14.95;100.00;100587.78;5285893;28;20057;-75
2022/09/14 05:10:11;;;;;;;25.58;13.15;;;;;;;14.94;100.00;100592.38;5286391;28;20076;-75
2022/09/14 05:12:41;;;;;;;30.05;14.27;;;;;;;14.94;100.00;100592.38;5286159;28;20093;-74
2022/09/14 05:15:12;;;;;;;26.88;14.30;;;;;;;14.93;100.00;100589.88;5285414;28;20031;-75
2022/09/14 05:17:42;;;;;;;24.90;14.10;;;;;;;14.92;100.00;100582.81;5285740;28;20031;-74
2022/09/14 05:20:13;;;;;;;25.98;13.27;;;;;;;14.90;100.00;100576.75;5272350;28;20495;-75
2022/09/14 05:22:43;;;;;;;23.52;13.80;;;;;;;14.88;100.00;100574.28;5272562;28;20051;-75
2022/09/14 05:25:14;;;;;;;26.67;15.05;;;;;;;14.84;100.00;100570.31;5284366;28;20419;-74
2022/09/14 05:27:44;;;;;;;34.55;15.40;;;;;;;14.83;100.00;100581.31;5273738;28;20028;-75
2022/09/14 05:30:15;;;;;;;27.88;14.57;;;;;;;14.82;100.00;100582.34;5283693;28;20038;-74
2022/09/14 05:32:45;;;;;;;27.70;14.60;;;;;;;14.82;100.00;100572.38;5274639;28;20421;-75
2022/09/14 05:35:16;;;;;;;29.48;15.80;;;;;;;14.80;100.00;100568.19;5282174;28;20119;-77
2022/09/14 05:37:46;;;;;;;30.55;14.95;;;;;;;14.80;100.00;100562.81;5275930;28;20066;-76
2022/09/14 05:40:17;;;;;;;33.65;15.05;;;;;;;14.81;100.00;100561.75;5285737;28;20024;-76
2022/09/14 05:42:47;;;;;;;33.28;15.70;;;;;;;14.82;100.00;100568.84;5285625;28;20409;-75
2022/09/14 05:45:18;;;;;;;31.42;15.50;;;;;;;14.82;100.00;100564.28;5247591;28;20520;-76
2022/09/14 05:47:48;;;;;;;28.70;15.02;;;;;;;14.82;100.00;100560.75;5274121;28;20453;-75
2022/09/14 05:50:18;;;;;;;31.20;15.98;;;;;;;14.77;100.00;100556.78;5272077;28;20034;-75
2022/09/14 05:52:50;;;;;;;27.25;14.88;;;;;;;14.80;100.00;100557.41;5287092;28;20031;-75
2022/09/14 05:55:20;;;;;;;25.95;15.40;;;;;;;14.77;100.00;100562.19;5288854;28;20385;-75
2022/09/14 05:57:51;;;;;;;35.25;14.43;;;;;;;14.78;100.00;100560.31;5287224;28;20051;-75
2022/09/14 06:00:22;;;;;;;25.80;14.85;;;;;;;14.79;100.00;100551.16;5278648;28;20524;-75
2022/09/14 06:02:53;;;;;;;27.90;15.07;;;;;;;14.77;100.00;100537.03;5289863;28;20039;-75
2022/09/14 06:05:24;;;;;;;28.65;14.68;;;;;;;14.76;100.00;100530.00;5288941;28;20027;-73
2022/09/14 06:07:54;;;;;;;32.22;14.70;;;;;;;14.76;100.00;100528.13;5289164;28;20030;-73
2022/09/14 06:10:25;;;;;;;24.65;14.25;;;;;;;14.75;100.00;100523.72;5289634;28;20016;-73
2022/09/14 06:12:55;;;;;;;26.95;14.77;;;;;;;14.71;100.00;100536.00;5280431;28;20039;-73
2022/09/14 06:15:26;;;;;;;20.33;12.88;;;;;;;14.69;100.00;100538.03;5286266;28;20358;-73
2022/09/14 06:17:56;;;;;;;22.38;13.43;;;;;;;14.66;100.00;100538.47;5280341;28;20500;-73
2022/09/14 06:20:27;;;;;;;21.58;12.95;;;;;;;14.65;100.00;100536.75;5283576;28;20117;-73
2022/09/14 06:22:57;;;;;;;23.00;12.80;;;;;;;14.65;100.00;100527.84;5288709;28;20458;-74
2022/09/14 06:25:28;;;;;;;21.85;13.55;;;;;;;14.66;100.00;100529.50;5278944;28;20028;-73
2022/09/14 06:27:58;;;;;;;23.67;13.60;;;;;;;14.69;100.00;100535.34;5271939;28;20032;-73
2022/09/14 06:30:29;;;;;;;25.98;13.55;;;;;;;14.74;100.00;100553.63;5283027;28;20035;-73
2022/09/14 06:32:59;;;;;;;24.15;13.30;;;;;;;14.76;100.00;100538.91;5285579;28;20115;-74
2022/09/14 06:35:30;;;;;;;22.38;12.48;;;;;;;14.76;100.00;100547.03;5278593;28;20031;-73
2022/09/14 06:38:00;;;;;;;19.83;12.10;;;;;;;14.76;100.00;100548.88;5285168;28;20051;-73
2022/09/14 06:40:31;;;;;;;21.23;12.93;;;;;;;14.81;100.00;100545.56;5264122;28;20038;-74
2022/09/14 06:43:01;;;;;;;20.77;12.25;;;;;;;14.81;100.00;100542.84;5277548;28;20030;-74
2022/09/14 06:45:32;;;;;;;20.70;12.95;;;;;;;14.82;100.00;100541.84;5263181;28;20076;-73
2022/09/14 06:48:02;;;;;;;18.55;11.90;;;;;;;14.81;100.00;100538.31;5274593;28;20028;-74
2022/09/14 06:50:33;;;;;;;22.40;12.82;;;;;;;14.83;100.00;100535.41;5267363;28;20028;-73
2022/09/14 06:53:04;;;;;;;20.38;11.65;;;;;;;14.85;100.00;100544.13;5254026;28;20027;-73
2022/09/14 06:55:35;;;;;;;21.13;13.23;;;;;;;14.87;100.00;100556.41;5284895;28;20610;-73
2022/09/14 06:58:06;;;;;;;23.42;14.00;;;;;;;14.95;100.00;100550.81;5280652;28;20020;-73
2022/09/14 07:00:37;;;;;;;24.67;14.23;;;;;;;14.96;100.00;100544.41;5264494;28;20185;-73
2022/09/14 07:03:07;;;;;;;23.75;14.82;;;;;;;14.92;100.00;100545.84;5278383;28;20028;-73
2022/09/14 07:05:38;;;;;;;25.20;15.10;;;;;;;14.92;100.00;100553.09;5263423;28;20513;-74
2022/09/14 07:08:08;;;;;;;24.13;14.70;;;;;;;14.86;100.00;100552.03;5271416;28;20019;-74
2022/09/14 07:10:39;;;;;;;28.27;16.58;;;;;;;14.91;100.00;100551.41;5272740;28;20111;-74
2022/09/14 07:13:09;;;;;;;27.45;16.70;;;;;;;14.91;100.00;100544.16;5273541;28;20099;-74
2022/09/14 07:15:48;;;;;;;28.98;16.75;;;;;;;14.92;100.00;100543.13;5277962;28;20047;-73
2022/09/14 07:18:18;;;;;;;27.02;16.33;;;;;;;14.95;100.00;100552.69;5284514;28;20023;-74
2022/09/14 07:20:49;;;;;;;26.08;16.25;;;;;;;14.94;100.00;100556.44;5270970;28;20362;-74
2022/09/14 07:23:19;;;;;;;26.83;16.92;;;;;;;14.94;100.00;100559.13;5284355;28;20028;-74
2022/09/14 07:25:59;;;;;;;26.42;16.63;;;;;;;14.91;100.00;100554.97;5283472;28;20015;-74
2022/09/14 07:28:30;;;;;;;28.23;16.80;;;;;;;14.85;100.00;100561.16;5282888;28;20233;-74
2022/09/14 07:31:00;;;;;;;26.95;15.60;;;;;;;14.83;100.00;100552.44;5272024;28;20031;-74
2022/09/14 07:33:31;;;;;;;27.52;17.52;;;;;;;14.87;100.00;100552.88;5281999;28;20023;-74
2022/09/14 07:36:05;;;;;;;30.33;18.45;;;;;;;14.95;100.00;100549.97;5280542;28;20057;-74
2022/09/14 07:38:36;;;;;;;25.25;16.02;;;;;;;14.92;100.00;100562.03;5253989;28;20024;-74
2022/09/14 07:41:06;;;;;;;27.15;15.98;;;;;;;14.90;100.00;100557.84;5273024;28;20032;-73
2022/09/14 07:43:37;;;;;;;27.00;16.50;;;;;;;14.90;100.00;100558.69;5282409;28;20106;-73
2022/09/14 07:46:08;;;;;;;26.15;14.98;;;;;;;14.90;100.00;100563.25;5271083;28;20165;-74
2022/09/14 07:48:38;;;;;;;22.05;14.18;;;;;;;14.90;100.00;100563.25;5276495;28;20458;-74
2022/09/14 07:51:10;;;;;;;23.60;13.73;;;;;;;14.87;100.00;100575.31;5266186;28;20550;-74
2022/09/14 07:53:42;;;;;;;21.08;13.38;;;;;;;14.86;100.00;100576.34;5267746;28;20102;-74
2022/09/14 07:56:15;;;;;;;17.67;12.35;;;;;;;14.82;100.00;100568.84;5266936;28;20452;-74
2022/09/14 07:58:46;;;;;;;19.42;12.73;;;;;;;14.82;100.00;100575.09;5283314;28;20472;-74
2022/09/14 08:01:16;;;;;;;26.75;13.23;;;;;;;14.81;100.00;100575.25;5267112;28;20031;-74
2022/09/14 08:03:47;;;;;;;22.02;12.57;;;;;;;14.80;100.00;100579.84;5265460;28;20485;-74
2022/09/14 08:06:21;;;;;;;22.95;13.20;;;;;;;14.81;100.00;100570.72;5267327;28;20111;-74
2022/09/14 08:08:54;;;;;;;19.42;13.32;;;;;;;14.80;100.00;100571.72;5274140;28;20416;-74
2022/09/14 08:11:27;;;;;;;21.63;14.00;;;;;;;14.81;100.00;100570.72;5272439;28;20477;-74
2022/09/14 08:14:00;;;;;;;22.98;13.77;;;;;;;14.82;100.00;100571.56;5283458;28;20019;-74
2022/09/14 08:16:33;;;;;;;21.17;13.27;;;;;;;14.81;100.00;100567.16;5277993;28;20050;-73
2022/09/14 08:19:06;;;;;;;26.50;14.25;;;;;;;14.81;100.00;100561.75;5282576;28;20028;-73
2022/09/14 08:21:36;;;;;;;22.73;14.30;;;;;;;14.86;100.00;100552.03;5283762;28;20031;-73
2022/09/14 08:24:07;;;;;;;23.40;15.10;;;;;;;14.90;100.00;100547.06;5282709;28;20042;-74
2022/09/14 08:26:39;;;;;;;22.30;14.75;;;;;;;14.89;100.00;100540.00;5283122;28;20064;-74
2022/09/14 08:29:11;;;;;;;25.60;15.52;;;;;;;14.95;100.00;100539.19;5263624;28;20035;-73
2022/09/14 08:31:44;;;;;;;24.50;14.98;;;;;;;15.00;100.00;100544.81;5282115;28;20107;-74
2022/09/14 08:34:15;;;;;;;25.52;15.77;;;;;;;15.05;100.00;100542.34;5264740;28;20264;-74
2022/09/14 08:36:46;;;;;;;22.73;14.70;;;;;;;15.10;100.00;100545.25;5268410;28;20039;-73
2022/09/14 08:39:17;;;;;;;25.67;15.75;;;;;;;15.17;100.00;100540.72;5271842;28;20024;-74
2022/09/14 08:42:05;;;;;;;24.27;15.55;;;;;;;15.24;100.00;100527.22;5269356;28;20387;-74
2022/09/14 08:44:41;;;;;;;24.13;14.63;;;;;;;15.24;100.00;100519.94;5270632;28;20020;-74
2022/09/14 08:47:34;;;;;;;24.80;15.70;;;;;;;15.31;100.00;100521.81;5283301;28;20064;-74
2022/09/14 08:50:21;;;;;;;29.30;16.77;;;;;;;15.29;100.00;100520.16;5248093;28;20038;-73
2022/09/14 08:52:53;;;;;;;24.08;16.65;;;;;;;15.31;100.00;100516.41;5277491;28;20500;-74
2022/09/14 08:55:54;;;;;;;24.65;14.57;;;;;;;15.28;100.00;100515.78;5282839;28;20515;-74
2022/09/14 08:58:45;;;;;;;23.70;15.02;;;;;;;15.24;100.00;100522.63;5271218;28;20481;-74
2022/09/14 09:01:43;;;;;;;21.20;14.52;;;;;;;15.22;100.00;100519.31;5269444;28;20040;-74
2022/09/14 09:04:33;;;;;;;22.50;14.20;;;;;;;15.22;100.00;100519.31;5277248;28;20039;-74
2022/09/14 09:07:11;;;;;;;25.00;16.38;;;;;;;15.24;100.00;100525.34;5274428;28;20096;-74
2022/09/14 09:09:45;;;;;;;23.45;15.82;;;;;;;15.27;100.00;100534.94;5252726;28;20549;-74
2022/09/14 09:12:19;;;;;;;23.85;14.48;;;;;;;15.33;100.00;100538.69;5269520;28;20024;-74
2022/09/14 09:14:53;;;;;;;23.80;15.13;;;;;;;15.30;100.00;100542.59;5277685;28;20414;-74
2022/09/14 09:17:29;;;;;;;25.30;15.70;;;;;;;15.27;100.00;100543.88;5282662;28;20031;-73
2022/09/14 09:20:04;;;;;;;23.73;14.48;;;;;;;15.29;100.00;100541.78;5271236;28;20039;-73
2022/09/14 09:22:40;;;;;;;21.08;14.40;;;;;;;15.37;100.00;100538.06;5275749;28;20031;-73
2022/09/14 09:25:21;;;;;;;21.50;14.52;;;;;;;15.42;100.00;100543.69;5261577;28;20024;-73
2022/09/14 09:27:59;;;;;;;25.02;15.07;;;;;;;15.41;100.00;100550.13;5276668;28;20020;-73
2022/09/14 09:30:29;;;;;;;23.02;14.77;;;;;;;15.39;100.00;100551.38;5280791;28;20063;-73
2022/09/14 09:33:00;;;;;;;27.75;14.27;;;;;;;15.36;100.00;100549.06;5259044;28;20031;-73
2022/09/14 09:35:32;;;;;;;19.13;12.77;;;;;;;15.28;100.00;100552.81;5262527;28;20548;-72
2022/09/14 09:38:12;;;;;;;21.20;13.50;;;;;;;15.24;100.00;100556.94;5286812;28;20155;-73
2022/09/14 09:40:48;;;;;;;21.00;14.18;;;;;;;15.23;100.00;100560.69;5278582;28;20016;-73
2022/09/14 09:43:20;;;;;;;22.50;13.57;;;;;;;15.21;100.00;100557.34;5281667;28;20028;-73
2022/09/14 09:46:05;;;;;;;21.33;14.10;;;;;;;15.20;100.00;100559.22;5275697;28;20589;-73
2022/09/14 09:48:37;;;;;;;21.88;14.75;;;;;;;15.22;100.00;100564.44;5281514;28;20027;-73
2022/09/14 09:51:12;;;;;;;22.17;14.50;;;;;;;15.18;100.00;100566.69;5274810;28;20036;-73
2022/09/14 09:53:58;;;;;;;21.42;13.45;;;;;;;15.18;100.00;100577.50;5266849;28;20036;-73
2022/09/14 09:56:32;;;;;;;26.13;14.52;;;;;;;15.16;100.00;100582.28;5278915;28;20024;-73
2022/09/14 09:59:19;;;;;;;27.40;14.73;;;;;;;15.17;100.00;100585.81;5266182;28;20070;-73
2022/09/14 10:01:51;;;;;;;27.13;16.83;;;;;;;15.19;100.00;100576.47;5286864;28;20115;-73
2022/09/14 10:04:27;;;;;;;28.83;18.50;;;;;;;15.21;100.00;100570.84;5284362;28;20084;-73
2022/09/14 10:06:58;;;;;;;29.23;17.67;;;;;;;15.22;100.00;100572.53;5265334;28;20020;-73
2022/09/14 10:09:28;;;;;;;26.27;16.88;;;;;;;15.21;100.00;100565.44;5278166;28;20431;-73
2022/09/14 10:12:01;;;;;;;29.88;17.75;;;;;;;15.19;100.00;100565.66;5269493;28;20016;-73
2022/09/14 10:14:34;;;;;;;29.38;16.55;;;;;;;15.17;100.00;100564.22;5283958;28;20031;-73
2022/09/14 10:17:16;;;;;;;28.40;17.55;;;;;;;15.17;100.00;100556.94;5286156;28;20031;-72
2022/09/14 10:19:48;;;;;;;25.17;16.83;;;;;;;15.14;100.00;100554.63;5285287;28;20028;-73
2022/09/14 10:22:39;;;;;;;25.95;15.68;;;;;;;15.17;100.00;100558.81;5281837;28;20020;-72
2022/09/14 10:25:28;;;;;;;28.55;17.10;;;;;;;15.20;100.00;100570.03;5264642;28;20564;-73
2022/09/14 10:27:59;;;;;;;29.58;18.77;;;;;;;15.25;100.00;100569.41;5276291;28;20012;-73
2022/09/14 10:30:52;;;;;;;48.38;21.10;;;;;;;15.23;100.00;100571.50;5264884;28;20815;-72
2022/09/14 10:33:22;;;;;;;28.20;17.77;;;;;;;15.22;100.00;100570.66;5266502;28;20414;-73
2022/09/14 10:35:55;;;;;;;22.63;15.75;;;;;;;15.15;100.00;100567.09;5283192;28;20039;-72
2022/09/14 10:38:45;;;;;;;28.35;16.65;;;;;;;15.13;100.00;100561.06;5283370;28;20031;-73
2022/09/14 10:41:35;;;;;;;24.10;17.13;;;;;;;15.14;100.00;100551.91;5266540;28;20028;-72
2022/09/14 10:44:42;;;;;;;25.27;17.60;;;;;;;15.19;100.00;100543.22;5275963;28;20035;-73
2022/09/14 10:47:50;;;;;;;29.05;18.20;;;;;;;15.22;100.00;100546.34;5270658;28;20041;-73
2022/09/14 10:50:32;;;;;;;25.70;17.23;;;;;;;15.25;100.00;100547.78;5287072;28;20362;-73
2022/09/14 10:53:19;;;;;;;22.10;15.38;;;;;;;15.28;100.00;100540.13;5287128;28;20024;-73
2022/09/14 10:56:00;;;;;;;21.83;14.82;;;;;;;15.25;100.00;100540.50;5269017;28;20031;-73
2022/09/14 10:59:08;;;;;;;24.35;14.48;;;;;;;15.26;100.00;100538.63;5274439;28;20023;-73
2022/09/14 11:02:06;;;;;;;20.00;12.70;;;;;;;15.20;100.00;100534.06;5287924;28;20110;-73
2022/09/14 11:04:46;;;;;;;19.25;13.50;;;;;;;15.26;100.00;100535.94;5269233;28;20024;-72
2022/09/14 11:07:28;;;;;;;20.30;13.65;;;;;;;15.28;100.00;100540.13;5279459;28;20058;-73
2022/09/14 11:10:18;;;;;;;18.88;13.25;;;;;;;15.27;100.00;100537.63;5274474;28;20539;-73
2022/09/14 11:13:04;;;;;;;17.10;12.65;;;;;;;15.25;100.00;100543.22;5268913;28;20111;-73
2022/09/14 11:15:50;;;;;;;20.40;13.90;;;;;;;15.26;100.00;100547.63;5280411;28;20035;-73
2022/09/14 11:18:39;;;;;;;18.92;11.27;;;;;;;15.25;100.00;100548.63;5274992;28;20079;-73
2022/09/14 11:21:35;;;;;;;16.13;11.75;;;;;;;15.21;100.00;100536.59;5274333;28;20062;-73
2022/09/14 11:24:18;;;;;;;16.30;10.57;;;;;;;15.20;100.00;100539.47;5280952;28;20028;-73
2022/09/14 11:27:00;;;;;;;14.77;10.27;;;;;;;15.22;100.00;100543.66;5281131;28;20372;-73
2022/09/14 11:29:37;;;;;;;14.52;9.93;;;;;;;15.20;100.00;100536.75;5287117;28;20049;-73
2022/09/14 11:32:29;;;;;;;9.90;6.93;;;;;;;15.13;100.00;100534.06;5282373;28;20142;-73
2022/09/14 11:35:10;;;;;;;15.95;6.72;;;;;;;15.12;100.00;100540.50;5280149;28;20024;-73
2022/09/14 11:37:46;;;;;;;11.70;5.78;;;;;;;15.19;100.00;100543.22;5287032;28;20099;-73
2022/09/14 11:40:40;;;;;;;7.70;5.43;;;;;;;15.17;100.00;100546.13;5268463;28;20157;-73